Time;durP1;ratioP1;P1;durP2;ratioP2;P2;SDS_P1;SDS_P2;PMS_P1;PMS_P2;Temp;Humidity;BMP_temperature;BMP_pressure;BME280_temperature;BME280_humidity;BME280_pressure;Samples;Min_cycle;Max_cycle;Signal;HPM_P1;HPM_P2
2023/07/04 00:00:23;;;;;;;8.85;3.53;;;19.70;83.40;;;;;;4116069;28;20046;-53
2023/07/04 00:02:27;;;;;;;11.07;3.60;;;19.60;83.70;;;;;;4115894;28;20069;-52
2023/07/04 00:04:29;;;;;;;9.00;3.75;;;19.60;83.60;;;;;;4115380;28;20038;-50
2023/07/04 00:06:32;;;;;;;8.60;3.22;;;19.50;83.80;;;;;;4116116;28;20093;-49
2023/07/04 00:08:34;;;;;;;8.57;3.47;;;19.60;83.70;;;;;;4115974;28;20047;-50
2023/07/04 00:10:37;;;;;;;11.25;3.67;;;19.60;83.70;;;;;;4116063;28;20500;-49
2023/07/04 00:12:39;;;;;;;7.43;3.60;;;19.50;83.60;;;;;;4116010;28;20543;-50
2023/07/04 00:14:44;;;;;;;10.90;3.28;;;19.50;83.90;;;;;;4114778;28;20082;-52
2023/07/04 00:16:46;;;;;;;6.88;3.03;;;19.50;83.90;;;;;;4116254;28;20043;-51
2023/07/04 00:18:51;;;;;;;7.82;3.47;;;19.50;83.90;;;;;;4115825;28;20454;-51
2023/07/04 00:20:55;;;;;;;13.10;4.35;;;19.50;83.90;;;;;;4115703;28;20075;-52
2023/07/04 00:22:59;;;;;;;9.27;3.20;;;19.50;84.20;;;;;;4115375;28;20547;-52
2023/07/04 00:25:01;;;;;;;10.93;3.70;;;19.50;84.80;;;;;;4100740;28;20401;-52
2023/07/04 00:27:03;;;;;;;8.63;4.28;;;19.50;84.80;;;;;;4116097;28;20051;-52
2023/07/04 00:29:06;;;;;;;8.38;3.58;;;19.40;84.10;;;;;;4115556;28;20122;-52
2023/07/04 00:31:10;;;;;;;11.63;4.32;;;19.40;84.30;;;;;;4115570;28;20078;-52
2023/07/04 00:33:13;;;;;;;11.00;5.30;;;19.40;84.30;;;;;;4098364;29;20075;-52
2023/07/04 00:35:16;;;;;;;16.70;5.05;;;19.40;84.00;;;;;;4114470;28;20508;-52
2023/07/04 00:37:21;;;;;;;10.10;5.05;;;19.30;84.10;;;;;;4115441;28;20046;-52
2023/07/04 00:39:23;;;;;;;11.35;5.25;;;19.30;84.30;;;;;;4098168;28;20072;-50
2023/07/04 00:41:27;;;;;;;13.77;6.57;;;19.30;84.70;;;;;;4115584;28;20382;-52
2023/07/04 00:44:11;;;;;;;13.47;5.53;;;19.20;84.50;;;;;;4115577;28;20050;-51
2023/07/04 00:46:15;;;;;;;8.13;5.05;;;19.30;84.40;;;;;;4105519;28;20058;-51
2023/07/04 00:48:17;;;;;;;14.02;5.70;;;19.30;84.90;;;;;;4115237;28;20047;-50
2023/07/04 00:50:25;;;;;;;11.32;5.25;;;19.20;84.50;;;;;;4118264;28;20050;-50
2023/07/04 00:52:33;;;;;;;9.55;4.60;;;19.20;84.90;;;;;;4115277;28;20125;-49
2023/07/04 00:54:37;;;;;;;14.73;5.35;;;19.30;85.30;;;;;;4113997;28;20045;-51
2023/07/04 00:56:41;;;;;;;11.30;4.93;;;19.20;84.70;;;;;;4115735;28;20043;-49
2023/07/04 00:58:43;;;;;;;12.27;5.35;;;19.20;84.20;;;;;;4114929;28;20093;-50
2023/07/04 01:00:45;;;;;;;9.93;4.57;;;19.20;84.30;;;;;;4115415;28;20449;-50
2023/07/04 01:02:50;;;;;;;13.75;4.68;;;19.20;84.90;;;;;;4115643;28;20054;-51
2023/07/04 01:04:53;;;;;;;8.25;4.65;;;19.10;85.00;;;;;;4114150;28;20047;-52
2023/07/04 01:07:08;;;;;;;9.75;4.18;;;19.10;85.70;;;;;;4115239;28;20051;-50
2023/07/04 01:09:12;;;;;;;8.55;4.18;;;19.10;85.50;;;;;;4115427;28;20121;-51
2023/07/04 01:11:19;;;;;;;17.67;5.13;;;19.10;85.20;;;;;;4114824;28;20047;-50
2023/07/04 01:13:33;;;;;;;11.05;4.18;;;19.00;85.50;;;;;;4099375;29;20135;-50
2023/07/04 01:15:35;;;;;;;12.50;4.78;;;19.10;85.10;;;;;;4107123;28;20449;-50
2023/07/04 01:17:41;;;;;;;11.07;5.70;;;19.00;85.30;;;;;;4115036;28;20057;-49
2023/07/04 01:19:45;;;;;;;11.63;5.35;;;19.00;85.60;;;;;;4114707;28;20057;-51
2023/07/04 01:21:52;;;;;;;11.27;5.32;;;19.00;85.40;;;;;;4115032;28;20492;-51
2023/07/04 01:24:06;;;;;;;11.52;5.28;;;19.00;85.70;;;;;;4114144;28;20140;-53
2023/07/04 01:26:21;;;;;;;14.50;5.13;;;19.00;85.40;;;;;;4114568;28;20379;-52
2023/07/04 01:28:24;;;;;;;8.20;4.53;;;19.00;85.30;;;;;;4115205;28;20043;-53
2023/07/04 01:30:28;;;;;;;13.30;5.82;;;19.00;85.40;;;;;;4114946;28;20476;-53
2023/07/04 01:32:31;;;;;;;12.65;5.72;;;19.00;85.20;;;;;;4102657;28;20101;-53
2023/07/04 01:34:33;;;;;;;13.88;5.88;;;19.00;85.40;;;;;;4113625;28;20046;-51
2023/07/04 01:36:38;;;;;;;14.18;6.22;;;19.00;85.70;;;;;;4114897;28;20053;-50
2023/07/04 01:38:40;;;;;;;9.48;5.60;;;19.10;85.10;;;;;;4115036;28;20098;-53
2023/07/04 01:40:42;;;;;;;13.45;6.05;;;19.00;85.30;;;;;;4114768;28;20118;-51
2023/07/04 01:42:49;;;;;;;12.85;6.30;;;19.00;85.30;;;;;;4114734;28;20046;-51
2023/07/04 01:44:51;;;;;;;12.48;6.68;;;19.00;86.30;;;;;;4113650;28;20051;-53
2023/07/04 01:46:53;;;;;;;13.55;6.90;;;19.00;85.50;;;;;;4114350;28;20057;-52
2023/07/04 01:48:56;;;;;;;15.13;6.05;;;19.00;85.70;;;;;;4114865;28;20110;-53
2023/07/04 01:50:58;;;;;;;12.40;5.60;;;18.90;85.40;;;;;;4128787;28;20054;-52
2023/07/04 01:53:00;;;;;;;10.85;5.75;;;18.90;85.50;;;;;;4114679;28;20105;-52
2023/07/04 01:55:02;;;;;;;11.80;5.50;;;18.90;85.60;;;;;;4113802;28;20046;-52
2023/07/04 01:57:10;;;;;;;11.48;4.55;;;18.90;85.80;;;;;;4114702;28;20050;-53
2023/07/04 01:59:14;;;;;;;9.57;4.93;;;18.80;86.40;;;;;;4114825;28;20158;-53
2023/07/04 02:01:16;;;;;;;11.38;5.10;;;18.90;86.00;;;;;;4114617;28;20050;-53
2023/07/04 02:03:18;;;;;;;11.88;4.57;;;18.80;86.20;;;;;;4114276;28;20058;-53
2023/07/04 02:05:21;;;;;;;9.23;4.10;;;18.80;86.40;;;;;;4113776;28;20143;-51
2023/07/04 02:07:23;;;;;;;10.48;4.82;;;18.80;86.60;;;;;;4114760;28;20047;-51
2023/07/04 02:09:25;;;;;;;13.35;4.60;;;18.80;86.40;;;;;;4114686;28;20057;-51
2023/07/04 02:11:27;;;;;;;10.73;4.28;;;18.70;86.80;;;;;;4117846;28;20105;-52
2023/07/04 02:13:29;;;;;;;9.65;3.85;;;18.70;86.90;;;;;;4116701;28;20054;-51
2023/07/04 02:15:33;;;;;;;7.40;3.45;;;18.60;87.30;;;;;;4116879;28;20126;-52
2023/07/04 02:17:35;;;;;;;12.23;3.42;;;18.60;87.40;;;;;;4117711;28;20104;-51
2023/07/04 02:19:38;;;;;;;9.05;3.20;;;18.50;87.50;;;;;;4116373;28;20481;-51
2023/07/04 02:21:40;;;;;;;12.32;3.88;;;18.50;87.90;;;;;;4117841;28;20083;-50
2023/07/04 02:23:43;;;;;;;11.82;3.80;;;18.60;87.60;;;;;;4117535;28;20043;-51
2023/07/04 02:25:46;;;;;;;13.13;3.50;;;18.60;87.60;;;;;;4116683;28;20057;-51
2023/07/04 02:27:48;;;;;;;9.90;3.88;;;18.50;87.60;;;;;;4117249;28;20050;-53
2023/07/04 02:29:50;;;;;;;11.60;3.17;;;18.50;87.60;;;;;;4117711;28;20038;-51
2023/07/04 02:31:53;;;;;;;14.27;4.47;;;18.50;87.90;;;;;;4117793;28;20159;-50
2023/07/04 02:33:55;;;;;;;13.75;3.72;;;18.50;88.10;;;;;;4117145;28;20481;-50
2023/07/04 02:35:58;;;;;;;13.13;4.47;;;18.40;88.10;;;;;;4116370;28;20082;-51
2023/07/04 02:38:00;;;;;;;12.95;4.22;;;18.40;88.10;;;;;;4117314;28;20074;-50
2023/07/04 02:40:02;;;;;;;15.82;4.85;;;18.40;88.50;;;;;;4117662;28;20081;-51
2023/07/04 02:42:05;;;;;;;13.48;4.85;;;18.40;88.70;;;;;;4117806;28;20118;-50
2023/07/04 02:44:07;;;;;;;15.15;5.70;;;18.40;88.70;;;;;;4117144;28;20051;-53
2023/07/04 02:46:09;;;;;;;17.08;5.30;;;18.40;88.60;;;;;;4116221;28;20055;-50
2023/07/04 02:48:15;;;;;;;16.38;6.40;;;18.30;88.60;;;;;;4116884;28;20051;-53
2023/07/04 02:50:17;;;;;;;18.33;7.00;;;18.40;88.70;;;;;;4101061;28;20035;-53
2023/07/04 02:52:20;;;;;;;15.07;5.78;;;18.30;88.80;;;;;;4101293;29;20098;-53
2023/07/04 02:54:22;;;;;;;17.60;7.93;;;18.30;89.30;;;;;;4113660;28;20054;-54
2023/07/04 02:56:24;;;;;;;14.10;6.82;;;18.20;89.60;;;;;;4116726;28;20047;-52
2023/07/04 02:58:26;;;;;;;18.00;8.88;;;18.20;89.80;;;;;;4116853;28;20035;-52
2023/07/04 03:00:28;;;;;;;17.67;8.35;;;18.20;89.80;;;;;;4117337;28;20476;-53
2023/07/04 03:02:30;;;;;;;21.95;8.57;;;18.10;90.10;;;;;;4116900;28;20504;-50
2023/07/04 03:04:34;;;;;;;23.00;10.43;;;18.10;90.30;;;;;;4116064;28;20125;-51
2023/07/04 03:06:36;;;;;;;21.70;8.55;;;18.10;90.20;;;;;;4116727;28;20055;-53
2023/07/04 03:08:38;;;;;;;19.58;7.57;;;18.10;90.40;;;;;;4116827;28;20641;-53
2023/07/04 03:10:40;;;;;;;16.13;6.10;;;18.10;90.30;;;;;;4117016;28;20396;-53
2023/07/04 03:12:42;;;;;;;12.10;5.63;;;18.10;90.40;;;;;;4117027;28;20047;-53
2023/07/04 03:14:44;;;;;;;9.30;4.50;;;18.10;90.50;;;;;;4115651;28;20043;-50
2023/07/04 03:16:46;;;;;;;16.17;5.18;;;18.00;90.40;;;;;;4116463;28;20055;-53
2023/07/04 03:18:49;;;;;;;15.93;4.57;;;18.00;90.60;;;;;;4116524;28;20054;-53
2023/07/04 03:20:52;;;;;;;12.50;4.72;;;18.00;90.70;;;;;;4116911;28;20133;-53
2023/07/04 03:22:54;;;;;;;11.10;3.83;;;17.90;90.70;;;;;;4115800;28;20047;-50
2023/07/04 03:24:57;;;;;;;15.88;4.35;;;17.90;90.80;;;;;;4115770;28;20051;-53
2023/07/04 03:26:59;;;;;;;15.55;3.67;;;17.90;90.90;;;;;;4116451;28;20093;-50
2023/07/04 03:29:01;;;;;;;12.30;3.85;;;17.90;91.00;;;;;;4116456;28;20054;-51
2023/07/04 03:31:03;;;;;;;10.32;3.75;;;17.90;90.90;;;;;;4114917;28;20501;-50
2023/07/04 03:33:05;;;;;;;13.32;3.28;;;17.90;90.90;;;;;;4101061;28;20075;-53
2023/07/04 03:35:08;;;;;;;8.85;3.50;;;17.90;90.80;;;;;;4107459;28;20050;-53
2023/07/04 03:37:12;;;;;;;16.83;3.65;;;17.80;90.90;;;;;;4116640;28;20121;-53
2023/07/04 03:39:14;;;;;;;18.40;4.20;;;17.90;90.80;;;;;;4116545;28;20133;-53
2023/07/04 03:41:16;;;;;;;16.27;4.40;;;17.90;90.80;;;;;;4116290;28;20047;-53
2023/07/04 03:43:18;;;;;;;14.10;3.90;;;17.90;90.90;;;;;;4100696;29;20082;-51
2023/07/04 03:45:20;;;;;;;13.60;4.07;;;17.90;91.10;;;;;;4106091;28;20378;-50
2023/07/04 03:47:23;;;;;;;13.02;3.92;;;17.90;91.00;;;;;;4116206;28;20086;-50
2023/07/04 03:49:25;;;;;;;12.52;3.83;;;17.90;91.20;;;;;;4120715;28;20109;-53
2023/07/04 03:51:27;;;;;;;13.60;4.55;;;17.90;91.00;;;;;;4117566;28;20056;-53
2023/07/04 03:53:32;;;;;;;13.35;3.63;;;17.90;91.10;;;;;;4116253;28;20046;-50
2023/07/04 03:55:34;;;;;;;14.05;3.80;;;18.00;91.00;;;;;;4114853;28;20523;-50
2023/07/04 03:57:37;;;;;;;11.18;4.05;;;18.00;91.20;;;;;;4116280;28;20125;-51
2023/07/04 03:59:39;;;;;;;13.02;4.60;;;18.00;91.00;;;;;;4116036;28;20046;-50
2023/07/04 04:01:41;;;;;;;14.13;4.15;;;17.90;90.90;;;;;;4116449;28;20131;-50
2023/07/04 04:03:43;;;;;;;11.38;4.50;;;18.00;90.90;;;;;;4116081;28;20101;-51
2023/07/04 04:05:46;;;;;;;8.25;3.30;;;18.00;90.90;;;;;;4114822;28;20042;-51
2023/07/04 04:07:48;;;;;;;10.30;3.60;;;18.00;90.80;;;;;;4116226;28;20368;-51
2023/07/04 04:09:52;;;;;;;19.38;3.83;;;18.00;90.70;;;;;;4116011;28;20039;-51
2023/07/04 04:11:54;;;;;;;13.73;3.80;;;18.00;90.70;;;;;;4115818;28;20097;-50
2023/07/04 04:13:56;;;;;;;15.40;4.28;;;18.00;90.70;;;;;;4115630;28;20054;-50
2023/07/04 04:15:58;;;;;;;13.90;4.28;;;18.10;90.60;;;;;;4113639;28;20051;-50
2023/07/04 04:18:00;;;;;;;10.88;4.10;;;18.00;90.70;;;;;;4116275;28;20042;-49
2023/07/04 04:20:06;;;;;;;14.23;3.85;;;18.10;90.70;;;;;;4116076;28;20047;-50
2023/07/04 04:22:08;;;;;;;14.98;4.38;;;18.00;90.80;;;;;;4115857;28;20047;-50
2023/07/04 04:24:10;;;;;;;17.67;3.72;;;18.00;90.80;;;;;;4116071;28;20098;-50
2023/07/04 04:26:15;;;;;;;11.27;3.90;;;18.10;90.70;;;;;;4114876;28;20089;-49
2023/07/04 04:28:17;;;;;;;13.85;4.55;;;18.10;90.70;;;;;;4115369;28;20042;-50
2023/07/04 04:30:20;;;;;;;10.82;3.63;;;18.20;90.80;;;;;;4115952;28;20051;-50
2023/07/04 04:32:22;;;;;;;11.68;3.83;;;18.20;90.70;;;;;;4115619;28;20046;-57
2023/07/04 04:34:24;;;;;;;12.15;4.15;;;18.20;90.70;;;;;;4115861;28;20047;-50
2023/07/04 04:36:26;;;;;;;8.82;3.53;;;18.20;90.80;;;;;;4114763;28;20050;-49
2023/07/04 04:38:29;;;;;;;9.75;3.85;;;18.20;90.90;;;;;;4115527;28;20811;-50
2023/07/04 04:40:32;;;;;;;12.35;4.22;;;18.20;91.10;;;;;;4115695;28;20058;-50
2023/07/04 04:42:36;;;;;;;12.30;4.30;;;18.20;90.90;;;;;;4115577;28;20042;-50
2023/07/04 04:44:39;;;;;;;13.02;3.45;;;18.20;91.10;;;;;;4115234;28;20042;-50
2023/07/04 04:46:44;;;;;;;11.30;4.40;;;18.30;91.00;;;;;;4114275;28;20093;-51
2023/07/04 04:48:49;;;;;;;11.25;3.72;;;18.20;91.20;;;;;;4115619;28;20050;-52
2023/07/04 04:50:51;;;;;;;13.20;4.20;;;18.20;90.90;;;;;;4115345;28;20051;-52
2023/07/04 04:52:53;;;;;;;10.98;3.88;;;18.20;91.10;;;;;;4114995;28;20382;-52
2023/07/04 04:54:55;;;;;;;11.68;3.60;;;18.30;91.10;;;;;;4114674;28;20074;-52
2023/07/04 04:56:57;;;;;;;10.30;3.33;;;18.30;91.00;;;;;;4114856;28;20082;-52
2023/07/04 04:59:01;;;;;;;11.85;3.58;;;18.30;90.70;;;;;;4114971;28;20050;-51
2023/07/04 05:01:07;;;;;;;15.20;4.07;;;18.30;90.70;;;;;;4115339;28;20315;-52
2023/07/04 05:03:09;;;;;;;9.88;3.70;;;18.40;90.70;;;;;;4114936;28;20050;-52
2023/07/04 05:05:11;;;;;;;13.85;4.45;;;18.40;90.70;;;;;;4114169;28;20425;-52
2023/07/04 05:07:13;;;;;;;15.45;3.95;;;18.40;90.80;;;;;;4114944;28;20074;-52
2023/07/04 05:09:15;;;;;;;12.38;4.18;;;18.40;90.90;;;;;;4115175;28;20055;-52
2023/07/04 05:11:18;;;;;;;13.95;4.60;;;18.40;90.70;;;;;;4098220;29;20047;-52
2023/07/04 05:13:20;;;;;;;12.98;3.65;;;18.50;90.60;;;;;;4114999;28;20134;-50
2023/07/04 05:15:24;;;;;;;8.98;3.25;;;18.50;90.70;;;;;;4115531;28;20386;-50
2023/07/04 05:17:26;;;;;;;10.93;4.07;;;18.60;90.70;;;;;;4115973;28;20055;-51
2023/07/04 05:19:28;;;;;;;12.95;4.47;;;18.60;90.70;;;;;;4115560;28;20552;-51
2023/07/04 05:21:31;;;;;;;15.82;3.75;;;18.60;90.60;;;;;;4115315;28;20567;-51
2023/07/04 05:23:35;;;;;;;11.00;3.42;;;18.70;90.50;;;;;;4114905;28;20050;-52
2023/07/04 05:25:37;;;;;;;16.20;5.20;;;18.80;90.40;;;;;;4114271;28;20035;-52
2023/07/04 05:27:39;;;;;;;9.88;3.95;;;18.80;90.40;;;;;;4115069;28;20060;-52
2023/07/04 05:29:41;;;;;;;11.88;3.72;;;18.80;90.30;;;;;;4115289;28;20038;-52
2023/07/04 05:31:44;;;;;;;13.90;3.72;;;18.90;90.30;;;;;;4115604;28;20085;-50
2023/07/04 05:33:47;;;;;;;10.38;3.42;;;18.90;90.10;;;;;;4115050;28;20046;-51
2023/07/04 05:35:49;;;;;;;14.50;3.97;;;18.90;90.10;;;;;;4114025;28;20117;-52
2023/07/04 05:37:51;;;;;;;12.95;4.25;;;18.90;90.10;;;;;;4115072;28;20050;-53
2023/07/04 05:39:53;;;;;;;14.90;3.83;;;18.80;90.10;;;;;;4097422;28;20039;-53
2023/07/04 05:41:55;;;;;;;13.38;4.43;;;18.90;90.10;;;;;;4114695;28;20078;-54
2023/07/04 05:43:59;;;;;;;14.52;3.83;;;18.90;89.90;;;;;;4114763;28;20046;-54
2023/07/04 05:46:01;;;;;;;11.98;3.63;;;18.90;89.80;;;;;;4113192;28;20065;-53
2023/07/04 05:48:05;;;;;;;11.48;3.90;;;19.00;90.00;;;;;;4114869;28;20051;-54
2023/07/04 05:50:07;;;;;;;12.95;3.72;;;19.00;90.00;;;;;;4117567;28;20094;-53
2023/07/04 05:52:10;;;;;;;15.07;4.53;;;19.10;90.10;;;;;;4114851;28;20484;-53
2023/07/04 05:54:12;;;;;;;11.85;4.10;;;19.10;90.00;;;;;;4114488;28;20043;-54
2023/07/04 05:56:18;;;;;;;18.25;4.95;;;19.20;89.60;;;;;;4113771;28;20054;-54
2023/07/04 05:58:21;;;;;;;13.82;4.03;;;19.30;89.20;;;;;;4114926;28;20059;-51
2023/07/04 06:00:23;;;;;;;13.80;4.10;;;19.30;89.40;;;;;;4114821;28;20496;-52
2023/07/04 06:02:25;;;;;;;14.35;4.18;;;19.40;89.20;;;;;;4114714;28;20047;-52
2023/07/04 06:04:28;;;;;;;11.10;3.90;;;19.40;89.40;;;;;;4114610;28;20424;-52
2023/07/04 06:06:33;;;;;;;15.35;4.05;;;19.50;89.30;;;;;;4113645;28;20054;-52
2023/07/04 06:08:35;;;;;;;11.65;4.00;;;19.70;89.40;;;;;;4114726;28;20078;-52
2023/07/04 06:10:37;;;;;;;13.70;4.72;;;19.70;88.70;;;;;;4114201;28;20043;-52
2023/07/04 06:12:41;;;;;;;12.80;4.32;;;19.70;88.90;;;;;;4114644;28;20138;-51
2023/07/04 06:14:43;;;;;;;15.82;3.85;;;19.90;88.60;;;;;;4114355;28;20126;-52
2023/07/04 06:16:45;;;;;;;12.65;4.05;;;19.90;88.70;;;;;;4096290;29;20047;-51
2023/07/04 06:18:47;;;;;;;14.45;4.43;;;20.00;88.70;;;;;;4098609;28;20102;-52
2023/07/04 06:20:51;;;;;;;11.75;3.78;;;20.00;88.10;;;;;;4108527;28;20481;-51
2023/07/04 06:22:53;;;;;;;17.00;4.28;;;20.10;87.70;;;;;;4115236;28;20051;-59
2023/07/04 06:24:56;;;;;;;22.73;5.00;;;20.10;87.30;;;;;;4114296;28;20098;-52
2023/07/04 06:26:58;;;;;;;15.15;4.40;;;20.10;88.00;;;;;;4113344;28;20042;-52
2023/07/04 06:29:00;;;;;;;12.52;4.00;;;20.00;87.20;;;;;;4114670;28;20059;-51
2023/07/04 06:31:03;;;;;;;16.52;4.28;;;20.00;87.20;;;;;;4114187;28;20047;-52
2023/07/04 06:33:06;;;;;;;16.17;4.10;;;20.00;87.50;;;;;;4114655;28;20110;-52
2023/07/04 06:35:08;;;;;;;17.60;4.50;;;20.00;87.30;;;;;;4114084;28;20058;-52
2023/07/04 06:37:12;;;;;;;18.33;4.07;;;20.00;87.40;;;;;;4113951;28;20059;-52
2023/07/04 06:39:14;;;;;;;14.70;4.50;;;20.00;87.60;;;;;;4114113;28;20122;-55
2023/07/04 06:41:16;;;;;;;12.95;4.35;;;20.00;87.80;;;;;;4114145;28;20078;-52
2023/07/04 06:43:18;;;;;;;14.98;4.32;;;20.10;87.30;;;;;;4114279;28;20051;-54
2023/07/04 06:45:21;;;;;;;16.60;4.70;;;20.10;88.00;;;;;;4113630;28;20138;-52
2023/07/04 06:47:24;;;;;;;14.18;4.57;;;20.20;87.30;;;;;;4112454;28;20059;-54
2023/07/04 06:49:26;;;;;;;18.25;5.40;;;20.30;86.40;;;;;;4101325;28;20050;-51
2023/07/04 06:51:33;;;;;;;25.95;5.28;;;20.40;86.60;;;;;;4123989;28;20482;-51
2023/07/04 06:53:37;;;;;;;21.35;5.55;;;20.50;86.90;;;;;;4114318;28;20066;-51
2023/07/04 06:55:39;;;;;;;22.52;5.93;;;20.60;86.40;;;;;;4113691;28;20065;-55
2023/07/04 06:57:42;;;;;;;18.98;4.70;;;20.70;86.80;;;;;;4098898;28;20438;-54
2023/07/04 06:59:45;;;;;;;25.48;5.75;;;20.80;85.90;;;;;;4117548;28;20401;-52
2023/07/04 07:01:47;;;;;;;16.08;5.22;;;20.80;85.50;;;;;;4117285;28;20477;-50
2023/07/04 07:03:49;;;;;;;24.10;5.30;;;20.80;85.90;;;;;;4117230;28;20387;-51
2023/07/04 07:05:52;;;;;;;21.65;5.85;;;20.80;85.40;;;;;;4115962;28;20046;-52
2023/07/04 07:07:54;;;;;;;17.42;5.32;;;20.80;85.60;;;;;;4116581;28;20129;-52
2023/07/04 07:09:58;;;;;;;12.48;4.95;;;20.80;85.80;;;;;;4117096;28;20127;-51
2023/07/04 07:12:00;;;;;;;17.90;5.20;;;20.70;85.80;;;;;;4116867;28;20069;-51
2023/07/04 07:14:02;;;;;;;15.15;4.80;;;20.80;86.00;;;;;;4101046;29;20485;-50
2023/07/04 07:16:06;;;;;;;16.88;5.20;;;20.90;85.60;;;;;;4099865;29;20490;-52
2023/07/04 07:18:09;;;;;;;;;;;21.10;85.30;;;;;;4097264;29;20106;-50
2023/07/04 07:20:12;;;;;;;14.60;4.18;;;21.00;84.80;;;;;;4114646;28;19922;-49
2023/07/04 07:22:14;;;;;;;16.63;5.07;;;20.90;85.00;;;;;;4116964;28;20050;-50
2023/07/04 07:24:16;;;;;;;18.10;5.07;;;21.00;85.20;;;;;;4117241;28;20066;-51
2023/07/04 07:26:21;;;;;;;20.17;5.47;;;21.00;84.90;;;;;;4116124;28;20082;-50
2023/07/04 07:28:25;;;;;;;21.33;5.00;;;21.30;84.30;;;;;;4117102;28;20053;-48
2023/07/04 07:30:27;;;;;;;16.20;5.20;;;21.30;83.90;;;;;;4116757;28;20066;-49
2023/07/04 07:32:29;;;;;;;15.18;4.47;;;21.30;84.20;;;;;;4116935;28;20047;-49
2023/07/04 07:34:31;;;;;;;22.63;5.93;;;21.40;83.90;;;;;;4117183;28;20047;-50
2023/07/04 07:36:37;;;;;;;22.20;5.30;;;21.50;84.20;;;;;;4116260;28;20043;-50
2023/07/04 07:38:40;;;;;;;17.38;4.75;;;21.70;83.60;;;;;;4116685;28;20142;-49
2023/07/04 07:40:49;;;;;;;22.20;5.10;;;21.70;83.20;;;;;;4117009;28;20489;-50
2023/07/04 07:42:53;;;;;;;20.63;5.15;;;21.80;83.30;;;;;;4117033;28;20050;-50
2023/07/04 07:44:55;;;;;;;14.57;4.38;;;22.00;83.00;;;;;;4116918;28;20055;-49
2023/07/04 07:46:57;;;;;;;14.88;4.55;;;22.00;83.10;;;;;;4116119;28;20051;-50
2023/07/04 07:48:59;;;;;;;16.38;5.13;;;22.00;82.20;;;;;;4117042;28;20058;-50
2023/07/04 07:51:01;;;;;;;17.17;4.65;;;22.00;82.60;;;;;;4116934;28;20050;-51
2023/07/04 07:53:04;;;;;;;15.55;4.93;;;22.20;82.60;;;;;;4116574;28;20043;-50
2023/07/04 07:55:06;;;;;;;15.82;5.05;;;22.40;82.20;;;;;;4117401;28;20473;-55
2023/07/04 07:57:09;;;;;;;18.42;5.03;;;22.50;81.60;;;;;;4098838;28;20051;-52
2023/07/04 07:59:13;;;;;;;17.95;4.78;;;22.60;81.40;;;;;;4116860;28;20053;-52
2023/07/04 08:01:17;;;;;;;;;;;22.70;81.30;;;;;;4117583;28;20074;-49
2023/07/04 08:03:19;;;;;;;21.48;5.80;;;22.90;80.40;;;;;;4116953;28;19941;-50
2023/07/04 08:05:21;;;;;;;17.17;4.57;;;22.80;81.50;;;;;;4116543;28;20055;-52
2023/07/04 08:07:23;;;;;;;17.25;5.20;;;22.80;81.10;;;;;;4115090;28;20043;-52
2023/07/04 08:09:25;;;;;;;17.63;5.25;;;22.90;81.10;;;;;;4116567;28;20047;-53
2023/07/04 08:11:28;;;;;;;15.02;4.40;;;23.20;80.50;;;;;;4116814;28;20047;-51
2023/07/04 08:13:30;;;;;;;18.20;4.78;;;23.20;79.20;;;;;;4116738;28;20121;-54
2023/07/04 08:15:34;;;;;;;18.58;5.28;;;23.30;78.90;;;;;;4115848;28;20082;-54
2023/07/04 08:17:36;;;;;;;17.25;4.60;;;23.40;77.50;;;;;;4116359;28;20122;-53
2023/07/04 08:19:39;;;;;;;13.65;4.35;;;23.30;76.40;;;;;;4116621;28;20125;-50
2023/07/04 08:21:41;;;;;;;13.88;3.92;;;23.40;75.50;;;;;;4116446;28;20047;-50
2023/07/04 08:23:44;;;;;;;10.45;3.78;;;23.40;75.00;;;;;;4116449;28;20047;-51
2023/07/04 08:25:46;;;;;;;10.85;3.90;;;23.40;75.90;;;;;;4115809;28;20082;-51
2023/07/04 08:27:48;;;;;;;16.42;4.57;;;23.30;74.90;;;;;;4116451;28;20050;-52
2023/07/04 08:29:50;;;;;;;8.20;2.90;;;23.30;75.20;;;;;;4116452;28;20054;-51
2023/07/04 08:31:53;;;;;;;14.05;4.10;;;23.30;72.60;;;;;;4116888;28;20127;-54
2023/07/04 08:33:55;;;;;;;10.57;3.00;;;23.30;72.60;;;;;;4119664;28;20401;-56
2023/07/04 08:36:00;;;;;;;13.00;3.40;;;23.40;72.20;;;;;;4117931;28;20469;-53
2023/07/04 08:38:02;;;;;;;15.45;4.30;;;23.30;72.10;;;;;;4116688;28;20114;-52
2023/07/04 08:40:05;;;;;;;10.45;3.28;;;23.40;72.10;;;;;;4117492;28;20093;-64
2023/07/04 08:42:08;;;;;;;8.93;3.20;;;23.60;73.00;;;;;;4118478;28;20466;-56
2023/07/04 08:44:15;;;;;;;11.45;3.70;;;23.80;70.80;;;;;;4116561;28;20050;-54
2023/07/04 08:46:19;;;;;;;8.55;3.15;;;23.90;71.10;;;;;;4115005;28;20054;-51
2023/07/04 08:48:24;;;;;;;13.40;3.45;;;23.90;71.50;;;;;;4115764;28;20050;-51
2023/07/04 08:50:31;;;;;;;15.85;3.75;;;24.10;71.60;;;;;;4116039;28;20047;-51
2023/07/04 08:52:37;;;;;;;19.50;4.25;;;24.40;71.30;;;;;;4116066;28;20145;-51
2023/07/04 08:54:39;;;;;;;10.85;3.58;;;24.60;71.40;;;;;;4116218;28;20055;-52
2023/07/04 08:56:41;;;;;;;11.70;3.30;;;24.60;70.90;;;;;;4114789;28;20146;-51
2023/07/04 08:58:56;;;;;;;9.40;3.28;;;24.50;71.70;;;;;;4116074;28;20493;-52
2023/07/04 09:01:03;;;;;;;9.43;3.17;;;24.50;70.10;;;;;;4117241;28;20047;-54
2023/07/04 09:03:24;;;;;;;9.98;3.40;;;24.50;69.70;;;;;;4118550;28;20046;-56
2023/07/04 09:05:37;;;;;;;10.07;3.50;;;24.60;69.30;;;;;;4117496;28;20043;-52
2023/07/04 09:07:50;;;;;;;9.07;3.25;;;24.60;69.50;;;;;;4117568;28;20469;-57
2023/07/04 09:10:02;;;;;;;11.68;3.78;;;24.40;70.10;;;;;;4116823;28;20051;-53
2023/07/04 09:12:06;;;;;;;13.30;4.00;;;24.50;69.80;;;;;;4117091;28;20507;-54
2023/07/04 09:14:15;;;;;;;12.30;3.53;;;24.50;70.90;;;;;;4117320;28;20524;-55
2023/07/04 09:16:26;;;;;;;16.48;3.50;;;24.40;70.30;;;;;;4116698;28;20047;-53
2023/07/04 09:18:36;;;;;;;12.80;3.63;;;24.40;70.80;;;;;;4116811;28;20047;-54
2023/07/04 09:20:46;;;;;;;17.95;3.67;;;24.40;70.70;;;;;;4098555;28;20051;-56
2023/07/04 09:22:48;;;;;;;13.88;3.17;;;24.20;70.70;;;;;;4116302;28;20051;-54
2023/07/04 09:24:50;;;;;;;14.35;3.50;;;24.10;71.60;;;;;;4116523;28;20122;-54
2023/07/04 09:26:54;;;;;;;11.93;3.42;;;24.20;71.60;;;;;;4115307;28;20057;-54
2023/07/04 09:28:57;;;;;;;15.68;4.78;;;24.20;71.90;;;;;;4115923;28;20047;-54
2023/07/04 09:31:02;;;;;;;18.77;4.65;;;24.20;72.10;;;;;;4116007;28;20051;-50
2023/07/04 09:33:05;;;;;;;11.00;3.58;;;24.20;72.10;;;;;;4115608;28;20050;-51
2023/07/04 09:35:10;;;;;;;12.30;3.22;;;24.40;72.00;;;;;;4115831;28;20043;-51
2023/07/04 09:37:18;;;;;;;12.65;3.70;;;24.40;72.00;;;;;;4114914;28;20047;-51
2023/07/04 09:39:20;;;;;;;16.75;3.85;;;24.50;72.20;;;;;;4115483;28;20046;-51
2023/07/04 09:41:25;;;;;;;14.73;3.92;;;24.80;72.10;;;;;;4115727;28;20134;-51
2023/07/04 09:43:30;;;;;;;11.73;3.67;;;24.90;71.70;;;;;;4115475;28;20062;-52
2023/07/04 09:45:32;;;;;;;17.65;4.18;;;24.90;71.50;;;;;;4115635;28;20196;-51
2023/07/04 09:47:36;;;;;;;13.18;3.85;;;24.90;71.80;;;;;;4113973;28;20110;-51
2023/07/04 09:49:39;;;;;;;13.48;3.78;;;24.90;71.60;;;;;;4115708;28;20051;-51
2023/07/04 09:51:41;;;;;;;8.80;3.38;;;24.80;71.60;;;;;;4115437;28;20042;-52
2023/07/04 09:53:45;;;;;;;10.60;4.35;;;24.80;72.00;;;;;;4115592;28;20063;-50
2023/07/04 09:55:58;;;;;;;9.80;3.50;;;24.90;72.10;;;;;;4116228;28;20525;-52
2023/07/04 09:58:15;;;;;;;10.93;3.67;;;24.90;72.10;;;;;;4116070;28;20046;-51
2023/07/04 10:00:20;;;;;;;16.90;4.65;;;24.90;71.80;;;;;;4115432;28;20057;-52
2023/07/04 10:02:36;;;;;;;19.35;4.40;;;25.00;72.40;;;;;;4114799;28;20512;-50
2023/07/04 10:04:40;;;;;;;10.70;4.30;;;25.20;72.40;;;;;;4115070;28;20038;-53
2023/07/04 10:06:44;;;;;;;13.77;4.07;;;25.10;72.60;;;;;;4114247;28;20420;-54
2023/07/04 10:08:53;;;;;;;13.75;4.15;;;25.20;72.60;;;;;;4115075;28;20053;-54
2023/07/04 10:10:57;;;;;;;15.40;4.75;;;25.30;72.10;;;;;;4115339;28;20054;-53
2023/07/04 10:13:00;;;;;;;12.98;3.97;;;25.20;72.90;;;;;;4115290;28;20101;-54
2023/07/04 10:15:03;;;;;;;16.10;4.63;;;25.20;73.20;;;;;;4115327;28;20051;-53
2023/07/04 10:17:14;;;;;;;13.90;4.10;;;25.10;73.80;;;;;;4114659;28;20050;-51
2023/07/04 10:19:19;;;;;;;16.08;4.85;;;25.10;73.60;;;;;;4115673;28;20057;-51
2023/07/04 10:21:21;;;;;;;11.30;3.75;;;25.00;73.90;;;;;;4115024;28;20047;-51
2023/07/04 10:23:25;;;;;;;20.77;5.22;;;24.90;74.00;;;;;;4114482;28;20058;-53
2023/07/04 10:25:30;;;;;;;18.05;3.88;;;24.90;74.40;;;;;;4114953;28;20082;-53
2023/07/04 10:27:35;;;;;;;17.73;4.78;;;24.80;74.00;;;;;;4114340;28;20047;-52
2023/07/04 10:29:42;;;;;;;13.27;3.70;;;25.00;73.60;;;;;;4115289;28;20050;-53
2023/07/04 10:31:46;;;;;;;10.30;3.70;;;25.20;73.60;;;;;;4117072;28;20054;-51
2023/07/04 10:33:52;;;;;;;12.65;3.88;;;25.30;72.50;;;;;;4118749;28;20126;-52
2023/07/04 10:35:55;;;;;;;12.90;3.92;;;25.40;72.10;;;;;;4117863;28;20051;-51